sensor_id;sensor_type;location;lat;lon;timestamp;P1;durP1;ratioP1;P2;durP2;ratioP2
63320;SDS011;49449;48.800;9.534;2023-08-06T00:01:00;2.67;;;2.47;;
63320;SDS011;49449;48.800;9.534;2023-08-06T00:03:28;2.78;;;2.58;;
63320;SDS011;49449;48.800;9.534;2023-08-06T00:05:56;2.33;;;2.13;;
63320;SDS011;49449;48.800;9.534;2023-08-06T00:08:24;3.55;;;2.60;;
63320;SDS011;49449;48.800;9.534;2023-08-06T00:10:52;3.40;;;2.75;;
63320;SDS011;49449;48.800;9.534;2023-08-06T00:13:21;2.38;;;2.17;;
63320;SDS011;49449;48.800;9.534;2023-08-06T00:15:49;2.83;;;2.53;;
63320;SDS011;49449;48.800;9.534;2023-08-06T00:18:16;2.60;;;2.40;;
63320;SDS011;49449;48.800;9.534;2023-08-06T00:20:44;2.40;;;2.20;;
63320;SDS011;49449;48.800;9.534;2023-08-06T00:23:12;2.67;;;2.47;;
63320;SDS011;49449;48.800;9.534;2023-08-06T00:25:40;3.33;;;2.50;;
63320;SDS011;49449;48.800;9.534;2023-08-06T00:28:07;2.80;;;2.60;;
63320;SDS011;49449;48.800;9.534;2023-08-06T00:30:36;2.65;;;2.45;;
63320;SDS011;49449;48.800;9.534;2023-08-06T00:33:04;3.13;;;2.80;;
63320;SDS011;49449;48.800;9.534;2023-08-06T00:35:32;2.70;;;2.25;;
63320;SDS011;49449;48.800;9.534;2023-08-06T00:38:00;3.50;;;2.58;;
63320;SDS011;49449;48.800;9.534;2023-08-06T00:40:28;2.70;;;2.50;;
63320;SDS011;49449;48.800;9.534;2023-08-06T00:42:56;2.78;;;2.22;;
63320;SDS011;49449;48.800;9.534;2023-08-06T00:45:25;3.40;;;2.95;;
63320;SDS011;49449;48.800;9.534;2023-08-06T00:47:54;3.00;;;2.80;;
63320;SDS011;49449;48.800;9.534;2023-08-06T00:50:22;2.90;;;2.65;;
63320;SDS011;49449;48.800;9.534;2023-08-06T00:52:50;3.22;;;2.58;;
63320;SDS011;49449;48.800;9.534;2023-08-06T00:55:18;3.75;;;2.97;;
63320;SDS011;49449;48.800;9.534;2023-08-06T00:57:46;3.22;;;3.03;;
63320;SDS011;49449;48.800;9.534;2023-08-06T01:00:14;3.30;;;3.00;;
63320;SDS011;49449;48.800;9.534;2023-08-06T01:02:42;3.17;;;2.88;;
63320;SDS011;49449;48.800;9.534;2023-08-06T01:05:11;2.90;;;2.70;;
63320;SDS011;49449;48.800;9.534;2023-08-06T01:07:42;3.00;;;2.80;;
63320;SDS011;49449;48.800;9.534;2023-08-06T01:10:23;4.60;;;2.78;;
63320;SDS011;49449;48.800;9.534;2023-08-06T01:13:06;3.15;;;2.85;;
63320;SDS011;49449;48.800;9.534;2023-08-06T01:15:41;3.00;;;2.60;;
63320;SDS011;49449;48.800;9.534;2023-08-06T01:18:13;2.90;;;2.70;;
63320;SDS011;49449;48.800;9.534;2023-08-06T01:20:42;2.80;;;2.60;;
63320;SDS011;49449;48.800;9.534;2023-08-06T01:23:10;3.58;;;3.20;;
63320;SDS011;49449;48.800;9.534;2023-08-06T01:25:40;3.15;;;2.95;;
63320;SDS011;49449;48.800;9.534;2023-08-06T01:28:20;3.22;;;2.92;;
63320;SDS011;49449;48.800;9.534;2023-08-06T01:30:55;3.03;;;2.72;;
63320;SDS011;49449;48.800;9.534;2023-08-06T01:33:26;2.97;;;2.67;;
63320;SDS011;49449;48.800;9.534;2023-08-06T01:35:59;3.47;;;2.80;;
63320;SDS011;49449;48.800;9.534;2023-08-06T01:38:29;2.83;;;2.63;;
63320;SDS011;49449;48.800;9.534;2023-08-06T01:40:57;2.90;;;2.70;;
63320;SDS011;49449;48.800;9.534;2023-08-06T01:43:25;2.65;;;2.45;;
63320;SDS011;49449;48.800;9.534;2023-08-06T01:45:53;2.78;;;2.55;;
63320;SDS011;49449;48.800;9.534;2023-08-06T01:48:21;2.75;;;2.55;;
63320;SDS011;49449;48.800;9.534;2023-08-06T01:50:49;2.88;;;2.67;;
63320;SDS011;49449;48.800;9.534;2023-08-06T01:53:19;2.60;;;2.40;;
63320;SDS011;49449;48.800;9.534;2023-08-06T01:55:47;3.10;;;2.90;;
63320;SDS011;49449;48.800;9.534;2023-08-06T01:58:15;2.67;;;2.47;;
63320;SDS011;49449;48.800;9.534;2023-08-06T02:00:43;2.50;;;2.30;;
63320;SDS011;49449;48.800;9.534;2023-08-06T02:03:11;2.50;;;2.30;;
63320;SDS011;49449;48.800;9.534;2023-08-06T02:05:39;2.60;;;2.40;;
63320;SDS011;49449;48.800;9.534;2023-08-06T02:08:07;3.33;;;3.03;;
63320;SDS011;49449;48.800;9.534;2023-08-06T02:10:36;3.95;;;2.80;;
63320;SDS011;49449;48.800;9.534;2023-08-06T02:13:04;2.72;;;2.53;;
63320;SDS011;49449;48.800;9.534;2023-08-06T02:15:32;3.10;;;2.78;;
63320;SDS011;49449;48.800;9.534;2023-08-06T02:18:00;2.72;;;2.53;;
63320;SDS011;49449;48.800;9.534;2023-08-06T02:20:27;3.13;;;2.60;;
63320;SDS011;49449;48.800;9.534;2023-08-06T02:22:55;2.50;;;2.30;;
63320;SDS011;49449;48.800;9.534;2023-08-06T02:25:23;3.08;;;2.78;;
63320;SDS011;49449;48.800;9.534;2023-08-06T02:27:53;2.60;;;2.40;;
63320;SDS011;49449;48.800;9.534;2023-08-06T02:30:20;2.70;;;2.50;;
63320;SDS011;49449;48.800;9.534;2023-08-06T02:32:48;2.92;;;2.72;;
63320;SDS011;49449;48.800;9.534;2023-08-06T02:35:16;4.20;;;2.53;;
63320;SDS011;49449;48.800;9.534;2023-08-06T02:37:44;3.47;;;3.10;;
63320;SDS011;49449;48.800;9.534;2023-08-06T02:40:11;5.20;;;3.28;;
63320;SDS011;49449;48.800;9.534;2023-08-06T02:42:39;3.03;;;2.70;;
63320;SDS011;49449;48.800;9.534;2023-08-06T02:45:09;3.38;;;3.08;;
63320;SDS011;49449;48.800;9.534;2023-08-06T02:47:37;3.00;;;2.70;;
63320;SDS011;49449;48.800;9.534;2023-08-06T02:50:05;3.38;;;2.78;;
63320;SDS011;49449;48.800;9.534;2023-08-06T02:52:33;2.55;;;2.35;;
63320;SDS011;49449;48.800;9.534;2023-08-06T02:55:01;3.15;;;2.40;;
63320;SDS011;49449;48.800;9.534;2023-08-06T02:57:29;2.88;;;2.67;;
63320;SDS011;49449;48.800;9.534;2023-08-06T02:59:57;2.40;;;2.20;;
63320;SDS011;49449;48.800;9.534;2023-08-06T03:02:26;3.08;;;2.00;;
63320;SDS011;49449;48.800;9.534;2023-08-06T03:04:54;2.35;;;2.15;;
63320;SDS011;49449;48.800;9.534;2023-08-06T03:07:22;3.03;;;1.83;;
63320;SDS011;49449;48.800;9.534;2023-08-06T03:09:50;3.35;;;2.42;;
63320;SDS011;49449;48.800;9.534;2023-08-06T03:12:17;2.90;;;2.65;;
63320;SDS011;49449;48.800;9.534;2023-08-06T03:14:45;2.60;;;2.20;;
63320;SDS011;49449;48.800;9.534;2023-08-06T03:17:13;5.43;;;2.50;;
63320;SDS011;49449;48.800;9.534;2023-08-06T03:19:42;3.58;;;2.50;;
63320;SDS011;49449;48.800;9.534;2023-08-06T03:22:10;2.40;;;2.20;;
63320;SDS011;49449;48.800;9.534;2023-08-06T03:24:38;3.67;;;2.70;;
63320;SDS011;49449;48.800;9.534;2023-08-06T03:27:06;2.63;;;2.42;;
63320;SDS011;49449;48.800;9.534;2023-08-06T03:29:33;2.90;;;2.45;;
63320;SDS011;49449;48.800;9.534;2023-08-06T03:32:01;3.38;;;2.33;;
63320;SDS011;49449;48.800;9.534;2023-08-06T03:34:29;2.20;;;2.10;;
63320;SDS011;49449;48.800;9.534;2023-08-06T03:36:58;3.33;;;2.15;;
63320;SDS011;49449;48.800;9.534;2023-08-06T03:39:26;3.60;;;2.53;;
63320;SDS011;49449;48.800;9.534;2023-08-06T03:41:54;2.75;;;2.15;;
63320;SDS011;49449;48.800;9.534;2023-08-06T03:44:22;3.20;;;2.00;;
63320;SDS011;49449;48.800;9.534;2023-08-06T03:46:50;1.98;;;1.77;;
63320;SDS011;49449;48.800;9.534;2023-08-06T03:49:18;2.33;;;2.13;;
63320;SDS011;49449;48.800;9.534;2023-08-06T03:51:45;2.05;;;1.83;;
63320;SDS011;49449;48.800;9.534;2023-08-06T03:54:15;1.70;;;1.60;;
63320;SDS011;49449;48.800;9.534;2023-08-06T03:56:43;3.42;;;2.00;;
63320;SDS011;49449;48.800;9.534;2023-08-06T03:59:10;2.03;;;1.92;;
63320;SDS011;49449;48.800;9.534;2023-08-06T04:01:38;2.22;;;2.05;;
63320;SDS011;49449;48.800;9.534;2023-08-06T04:04:06;3.17;;;2.47;;
63320;SDS011;49449;48.800;9.534;2023-08-06T04:06:34;2.85;;;2.47;;
63320;SDS011;49449;48.800;9.534;2023-08-06T04:09:02;2.58;;;2.22;;
63320;SDS011;49449;48.800;9.534;2023-08-06T04:11:31;2.50;;;2.00;;
63320;SDS011;49449;48.800;9.534;2023-08-06T04:13:59;2.25;;;2.05;;
63320;SDS011;49449;48.800;9.534;2023-08-06T04:16:27;3.08;;;2.00;;
63320;SDS011;49449;48.800;9.534;2023-08-06T04:18:55;2.40;;;2.20;;
63320;SDS011;49449;48.800;9.534;2023-08-06T04:21:24;1.80;;;1.70;;
63320;SDS011;49449;48.800;9.534;2023-08-06T04:23:52;2.80;;;1.95;;
63320;SDS011;49449;48.800;9.534;2023-08-06T04:26:20;3.30;;;1.90;;
63320;SDS011;49449;48.800;9.534;2023-08-06T04:28:49;2.35;;;2.00;;
63320;SDS011;49449;48.800;9.534;2023-08-06T04:31:16;2.80;;;2.00;;
63320;SDS011;49449;48.800;9.534;2023-08-06T04:33:44;2.08;;;1.98;;
63320;SDS011;49449;48.800;9.534;2023-08-06T04:36:12;3.78;;;1.85;;
63320;SDS011;49449;48.800;9.534;2023-08-06T04:38:40;4.47;;;2.20;;
63320;SDS011;49449;48.800;9.534;2023-08-06T04:41:11;4.13;;;2.20;;
63320;SDS011;49449;48.800;9.534;2023-08-06T04:43:38;2.42;;;2.10;;
63320;SDS011;49449;48.800;9.534;2023-08-06T04:46:08;2.40;;;1.98;;
63320;SDS011;49449;48.800;9.534;2023-08-06T04:48:36;2.33;;;1.90;;
63320;SDS011;49449;48.800;9.534;2023-08-06T04:51:03;2.20;;;1.95;;
63320;SDS011;49449;48.800;9.534;2023-08-06T04:53:31;4.40;;;2.40;;
63320;SDS011;49449;48.800;9.534;2023-08-06T04:55:59;2.92;;;1.80;;
63320;SDS011;49449;48.800;9.534;2023-08-06T04:58:27;1.95;;;1.85;;
63320;SDS011;49449;48.800;9.534;2023-08-06T05:00:54;3.00;;;1.70;;
63320;SDS011;49449;48.800;9.534;2023-08-06T05:03:24;2.15;;;1.98;;
63320;SDS011;49449;48.800;9.534;2023-08-06T05:05:51;2.22;;;1.65;;
63320;SDS011;49449;48.800;9.534;2023-08-06T05:08:19;2.45;;;1.60;;
63320;SDS011;49449;48.800;9.534;2023-08-06T05:10:47;1.80;;;1.70;;
63320;SDS011;49449;48.800;9.534;2023-08-06T05:13:15;2.28;;;1.70;;
63320;SDS011;49449;48.800;9.534;2023-08-06T05:15:42;2.28;;;1.70;;
63320;SDS011;49449;48.800;9.534;2023-08-06T05:18:12;1.40;;;1.30;;
63320;SDS011;49449;48.800;9.534;2023-08-06T05:20:41;1.73;;;1.42;;
63320;SDS011;49449;48.800;9.534;2023-08-06T05:23:09;1.60;;;1.48;;
63320;SDS011;49449;48.800;9.534;2023-08-06T05:25:37;2.10;;;1.50;;
63320;SDS011;49449;48.800;9.534;2023-08-06T05:28:06;2.55;;;1.77;;
63320;SDS011;49449;48.800;9.534;2023-08-06T05:30:33;1.60;;;1.27;;
63320;SDS011;49449;48.800;9.534;2023-08-06T05:33:03;3.17;;;1.55;;
63320;SDS011;49449;48.800;9.534;2023-08-06T05:35:31;3.67;;;1.63;;
63320;SDS011;49449;48.800;9.534;2023-08-06T05:38:00;2.30;;;1.58;;
63320;SDS011;49449;48.800;9.534;2023-08-06T05:40:28;1.67;;;1.50;;
63320;SDS011;49449;48.800;9.534;2023-08-06T05:42:55;1.73;;;1.20;;
63320;SDS011;49449;48.800;9.534;2023-08-06T05:45:23;1.98;;;1.25;;
63320;SDS011;49449;48.800;9.534;2023-08-06T05:47:51;1.30;;;1.20;;
63320;SDS011;49449;48.800;9.534;2023-08-06T05:50:20;1.55;;;1.13;;
63320;SDS011;49449;48.800;9.534;2023-08-06T05:52:48;1.83;;;1.10;;
63320;SDS011;49449;48.800;9.534;2023-08-06T05:55:17;1.60;;;1.30;;
63320;SDS011;49449;48.800;9.534;2023-08-06T05:57:45;1.33;;;1.23;;
63320;SDS011;49449;48.800;9.534;2023-08-06T06:00:13;1.27;;;1.10;;
63320;SDS011;49449;48.800;9.534;2023-08-06T06:02:41;1.95;;;1.20;;
63320;SDS011;49449;48.800;9.534;2023-08-06T06:05:08;1.55;;;1.10;;
63320;SDS011;49449;48.800;9.534;2023-08-06T06:07:36;1.50;;;1.15;;
63320;SDS011;49449;48.800;9.534;2023-08-06T06:10:04;1.40;;;1.30;;
63320;SDS011;49449;48.800;9.534;2023-08-06T06:12:34;3.22;;;1.08;;
63320;SDS011;49449;48.800;9.534;2023-08-06T06:15:02;2.28;;;1.08;;
63320;SDS011;49449;48.800;9.534;2023-08-06T06:17:30;1.38;;;0.90;;
63320;SDS011;49449;48.800;9.534;2023-08-06T06:19:58;1.77;;;1.10;;
63320;SDS011;49449;48.800;9.534;2023-08-06T06:22:25;1.38;;;1.02;;
63320;SDS011;49449;48.800;9.534;2023-08-06T06:24:53;1.10;;;0.90;;
63320;SDS011;49449;48.800;9.534;2023-08-06T06:27:21;2.72;;;1.08;;
63320;SDS011;49449;48.800;9.534;2023-08-06T06:29:50;1.58;;;0.93;;
63320;SDS011;49449;48.800;9.534;2023-08-06T06:32:18;1.42;;;0.95;;
63320;SDS011;49449;48.800;9.534;2023-08-06T06:34:46;3.83;;;1.25;;
63320;SDS011;49449;48.800;9.534;2023-08-06T06:37:14;0.80;;;0.80;;
63320;SDS011;49449;48.800;9.534;2023-08-06T06:39:42;3.72;;;1.08;;
63320;SDS011;49449;48.800;9.534;2023-08-06T06:42:10;2.25;;;1.48;;
63320;SDS011;49449;48.800;9.534;2023-08-06T06:44:38;2.92;;;1.20;;
63320;SDS011;49449;48.800;9.534;2023-08-06T06:47:07;2.95;;;1.00;;
63320;SDS011;49449;48.800;9.534;2023-08-06T06:49:34;1.17;;;1.13;;
63320;SDS011;49449;48.800;9.534;2023-08-06T06:52:02;1.88;;;0.98;;
63320;SDS011;49449;48.800;9.534;2023-08-06T06:54:31;1.35;;;0.95;;
63320;SDS011;49449;48.800;9.534;2023-08-06T06:56:58;2.42;;;1.10;;
63320;SDS011;49449;48.800;9.534;2023-08-06T06:59:26;1.92;;;1.40;;
63320;SDS011;49449;48.800;9.534;2023-08-06T07:01:54;2.42;;;1.10;;
63320;SDS011;49449;48.800;9.534;2023-08-06T07:04:23;1.65;;;0.93;;
63320;SDS011;49449;48.800;9.534;2023-08-06T07:06:51;0.80;;;0.80;;
63320;SDS011;49449;48.800;9.534;2023-08-06T07:09:19;2.53;;;1.17;;
63320;SDS011;49449;48.800;9.534;2023-08-06T07:11:47;1.58;;;1.05;;
63320;SDS011;49449;48.800;9.534;2023-08-06T07:14:14;1.42;;;1.20;;
63320;SDS011;49449;48.800;9.534;2023-08-06T07:16:42;1.20;;;1.00;;
63320;SDS011;49449;48.800;9.534;2023-08-06T07:19:10;0.70;;;0.70;;
63320;SDS011;49449;48.800;9.534;2023-08-06T07:21:39;1.08;;;0.75;;
63320;SDS011;49449;48.800;9.534;2023-08-06T07:24:07;1.52;;;0.80;;
63320;SDS011;49449;48.800;9.534;2023-08-06T07:26:35;2.03;;;0.50;;
63320;SDS011;49449;48.800;9.534;2023-08-06T07:29:02;1.75;;;0.82;;
63320;SDS011;49449;48.800;9.534;2023-08-06T07:31:30;1.50;;;1.33;;
63320;SDS011;49449;48.800;9.534;2023-08-06T07:33:58;2.15;;;0.93;;
63320;SDS011;49449;48.800;9.534;2023-08-06T07:36:26;1.00;;;1.00;;
63320;SDS011;49449;48.800;9.534;2023-08-06T07:38:55;0.93;;;0.73;;
63320;SDS011;49449;48.800;9.534;2023-08-06T07:41:23;0.65;;;0.65;;
63320;SDS011;49449;48.800;9.534;2023-08-06T07:43:51;0.82;;;0.77;;
63320;SDS011;49449;48.800;9.534;2023-08-06T07:46:18;1.40;;;1.33;;
63320;SDS011;49449;48.800;9.534;2023-08-06T07:48:46;1.48;;;0.70;;
63320;SDS011;49449;48.800;9.534;2023-08-06T07:51:14;0.50;;;0.50;;
63320;SDS011;49449;48.800;9.534;2023-08-06T07:53:42;1.00;;;0.80;;
63320;SDS011;49449;48.800;9.534;2023-08-06T07:56:11;0.43;;;0.43;;
63320;SDS011;49449;48.800;9.534;2023-08-06T07:58:39;0.30;;;0.30;;
63320;SDS011;49449;48.800;9.534;2023-08-06T08:01:06;0.43;;;0.43;;
63320;SDS011;49449;48.800;9.534;2023-08-06T08:03:34;0.98;;;0.50;;
63320;SDS011;49449;48.800;9.534;2023-08-06T08:06:02;0.60;;;0.60;;
63320;SDS011;49449;48.800;9.534;2023-08-06T08:08:30;0.47;;;0.40;;
63320;SDS011;49449;48.800;9.534;2023-08-06T08:10:57;0.20;;;0.20;;
63320;SDS011;49449;48.800;9.534;2023-08-06T08:13:28;0.32;;;0.32;;
63320;SDS011;49449;48.800;9.534;2023-08-06T08:15:58;0.40;;;0.40;;
63320;SDS011;49449;48.800;9.534;2023-08-06T08:18:26;0.50;;;0.30;;
63320;SDS011;49449;48.800;9.534;2023-08-06T08:20:54;0.38;;;0.38;;
63320;SDS011;49449;48.800;9.534;2023-08-06T08:23:22;0.45;;;0.45;;
63320;SDS011;49449;48.800;9.534;2023-08-06T08:25:50;0.63;;;0.63;;
63320;SDS011;49449;48.800;9.534;2023-08-06T08:28:18;0.77;;;0.50;;
63320;SDS011;49449;48.800;9.534;2023-08-06T08:30:47;0.43;;;0.40;;
63320;SDS011;49449;48.800;9.534;2023-08-06T08:33:15;0.70;;;0.30;;
63320;SDS011;49449;48.800;9.534;2023-08-06T08:35:43;0.25;;;0.25;;
63320;SDS011;49449;48.800;9.534;2023-08-06T08:38:13;0.50;;;0.25;;
63320;SDS011;49449;48.800;9.534;2023-08-06T08:40:41;0.22;;;0.22;;
63320;SDS011;49449;48.800;9.534;2023-08-06T08:43:15;0.30;;;0.30;;
63320;SDS011;49449;48.800;9.534;2023-08-06T08:45:43;0.88;;;0.57;;
63320;SDS011;49449;48.800;9.534;2023-08-06T08:48:17;0.40;;;0.40;;
63320;SDS011;49449;48.800;9.534;2023-08-06T08:50:46;0.40;;;0.40;;
63320;SDS011;49449;48.800;9.534;2023-08-06T08:53:16;0.52;;;0.30;;
63320;SDS011;49449;48.800;9.534;2023-08-06T08:55:46;0.40;;;0.38;;
63320;SDS011;49449;48.800;9.534;2023-08-06T08:58:14;0.57;;;0.30;;
63320;SDS011;49449;48.800;9.534;2023-08-06T09:00:42;1.10;;;0.80;;
63320;SDS011;49449;48.800;9.534;2023-08-06T09:03:12;0.30;;;0.30;;
63320;SDS011;49449;48.800;9.534;2023-08-06T09:05:43;0.43;;;0.43;;
63320;SDS011;49449;48.800;9.534;2023-08-06T09:08:15;0.70;;;0.70;;
63320;SDS011;49449;48.800;9.534;2023-08-06T09:10:46;0.80;;;0.80;;
63320;SDS011;49449;48.800;9.534;2023-08-06T09:13:16;0.55;;;0.20;;
63320;SDS011;49449;48.800;9.534;2023-08-06T09:15:43;0.30;;;0.30;;
63320;SDS011;49449;48.800;9.534;2023-08-06T09:18:12;0.28;;;0.28;;
63320;SDS011;49449;48.800;9.534;2023-08-06T09:20:40;0.50;;;0.50;;
63320;SDS011;49449;48.800;9.534;2023-08-06T09:23:09;0.17;;;0.17;;
63320;SDS011;49449;48.800;9.534;2023-08-06T09:25:38;0.90;;;0.52;;
63320;SDS011;49449;48.800;9.534;2023-08-06T09:28:07;0.40;;;0.40;;
63320;SDS011;49449;48.800;9.534;2023-08-06T09:30:35;0.10;;;0.10;;
63320;SDS011;49449;48.800;9.534;2023-08-06T09:33:07;0.52;;;0.52;;
63320;SDS011;49449;48.800;9.534;2023-08-06T09:35:36;0.73;;;0.60;;
63320;SDS011;49449;48.800;9.534;2023-08-06T09:38:07;0.85;;;0.85;;
63320;SDS011;49449;48.800;9.534;2023-08-06T09:40:38;0.40;;;0.40;;
63320;SDS011;49449;48.800;9.534;2023-08-06T09:43:07;0.57;;;0.57;;
63320;SDS011;49449;48.800;9.534;2023-08-06T09:45:35;0.45;;;0.45;;
63320;SDS011;49449;48.800;9.534;2023-08-06T09:48:04;0.40;;;0.40;;
63320;SDS011;49449;48.800;9.534;2023-08-06T09:50:33;0.70;;;0.70;;
63320;SDS011;49449;48.800;9.534;2023-08-06T09:53:03;1.30;;;0.88;;
63320;SDS011;49449;48.800;9.534;2023-08-06T09:55:32;5.50;;;1.40;;
63320;SDS011;49449;48.800;9.534;2023-08-06T09:58:01;4.25;;;1.52;;
63320;SDS011;49449;48.800;9.534;2023-08-06T10:00:29;3.85;;;1.90;;
63320;SDS011;49449;48.800;9.534;2023-08-06T10:03:00;2.90;;;1.83;;
63320;SDS011;49449;48.800;9.534;2023-08-06T10:05:28;0.65;;;0.65;;
63320;SDS011;49449;48.800;9.534;2023-08-06T10:07:58;2.53;;;1.05;;
63320;SDS011;49449;48.800;9.534;2023-08-06T10:10:27;0.57;;;0.57;;
63320;SDS011;49449;48.800;9.534;2023-08-06T10:12:56;1.33;;;1.20;;
63320;SDS011;49449;48.800;9.534;2023-08-06T10:15:28;6.43;;;4.50;;
63320;SDS011;49449;48.800;9.534;2023-08-06T10:17:59;2.72;;;2.53;;
63320;SDS011;49449;48.800;9.534;2023-08-06T10:20:32;5.85;;;5.35;;
63320;SDS011;49449;48.800;9.534;2023-08-06T10:23:01;2.00;;;1.90;;
63320;SDS011;49449;48.800;9.534;2023-08-06T10:25:32;0.40;;;0.40;;
63320;SDS011;49449;48.800;9.534;2023-08-06T10:28:01;0.95;;;0.95;;
63320;SDS011;49449;48.800;9.534;2023-08-06T10:30:42;1.35;;;1.25;;
63320;SDS011;49449;48.800;9.534;2023-08-06T10:33:11;2.90;;;0.60;;
63320;SDS011;49449;48.800;9.534;2023-08-06T10:35:40;0.40;;;0.40;;
63320;SDS011;49449;48.800;9.534;2023-08-06T10:40:40;0.65;;;0.47;;
63320;SDS011;49449;48.800;9.534;2023-08-06T10:43:24;0.47;;;0.30;;
63320;SDS011;49449;48.800;9.534;2023-08-06T10:45:54;0.38;;;0.38;;
63320;SDS011;49449;48.800;9.534;2023-08-06T10:48:29;0.90;;;0.30;;
63320;SDS011;49449;48.800;9.534;2023-08-06T10:50:59;0.20;;;0.20;;
63320;SDS011;49449;48.800;9.534;2023-08-06T10:53:27;0.30;;;0.30;;
63320;SDS011;49449;48.800;9.534;2023-08-06T10:55:57;0.43;;;0.43;;
63320;SDS011;49449;48.800;9.534;2023-08-06T10:58:30;0.57;;;0.20;;
63320;SDS011;49449;48.800;9.534;2023-08-06T11:01:00;0.20;;;0.20;;
63320;SDS011;49449;48.800;9.534;2023-08-06T11:03:28;0.30;;;0.20;;
63320;SDS011;49449;48.800;9.534;2023-08-06T11:05:56;0.35;;;0.35;;
63320;SDS011;49449;48.800;9.534;2023-08-06T11:08:24;0.25;;;0.25;;
63320;SDS011;49449;48.800;9.534;2023-08-06T11:10:53;0.38;;;0.38;;
63320;SDS011;49449;48.800;9.534;2023-08-06T11:13:27;1.00;;;0.40;;
63320;SDS011;49449;48.800;9.534;2023-08-06T11:15:56;0.17;;;0.17;;
63320;SDS011;49449;48.800;9.534;2023-08-06T11:18:26;0.60;;;0.60;;
63320;SDS011;49449;48.800;9.534;2023-08-06T11:20:54;0.73;;;0.20;;
63320;SDS011;49449;48.800;9.534;2023-08-06T11:23:21;0.73;;;0.57;;
63320;SDS011;49449;48.800;9.534;2023-08-06T11:25:49;0.32;;;0.32;;
63320;SDS011;49449;48.800;9.534;2023-08-06T11:28:18;0.88;;;0.40;;
63320;SDS011;49449;48.800;9.534;2023-08-06T11:30:47;0.55;;;0.43;;
63320;SDS011;49449;48.800;9.534;2023-08-06T11:33:19;0.32;;;0.32;;
63320;SDS011;49449;48.800;9.534;2023-08-06T11:35:49;0.85;;;0.57;;
63320;SDS011;49449;48.800;9.534;2023-08-06T11:38:17;0.50;;;0.50;;
63320;SDS011;49449;48.800;9.534;2023-08-06T11:40:45;0.47;;;0.47;;
63320;SDS011;49449;48.800;9.534;2023-08-06T11:43:14;0.40;;;0.30;;
63320;SDS011;49449;48.800;9.534;2023-08-06T11:45:42;0.95;;;0.93;;
63320;SDS011;49449;48.800;9.534;2023-08-06T11:48:10;0.40;;;0.40;;
63320;SDS011;49449;48.800;9.534;2023-08-06T11:50:38;0.77;;;0.77;;
63320;SDS011;49449;48.800;9.534;2023-08-06T11:53:07;1.27;;;0.60;;
63320;SDS011;49449;48.800;9.534;2023-08-06T11:55:39;0.80;;;0.80;;
63320;SDS011;49449;48.800;9.534;2023-08-06T11:58:07;0.63;;;0.63;;
63320;SDS011;49449;48.800;9.534;2023-08-06T12:00:35;0.30;;;0.30;;
63320;SDS011;49449;48.800;9.534;2023-08-06T12:03:04;0.52;;;0.52;;
63320;SDS011;49449;48.800;9.534;2023-08-06T12:05:33;0.70;;;0.70;;
63320;SDS011;49449;48.800;9.534;2023-08-06T12:08:01;0.57;;;0.57;;
63320;SDS011;49449;48.800;9.534;2023-08-06T12:10:32;0.68;;;0.68;;
63320;SDS011;49449;48.800;9.534;2023-08-06T12:13:00;0.68;;;0.68;;
63320;SDS011;49449;48.800;9.534;2023-08-06T12:15:28;1.00;;;0.90;;
63320;SDS011;49449;48.800;9.534;2023-08-06T12:17:57;1.73;;;0.90;;
63320;SDS011;49449;48.800;9.534;2023-08-06T12:20:25;0.98;;;0.98;;
63320;SDS011;49449;48.800;9.534;2023-08-06T12:22:54;0.90;;;0.90;;
63320;SDS011;49449;48.800;9.534;2023-08-06T12:25:22;1.38;;;1.10;;
63320;SDS011;49449;48.800;9.534;2023-08-06T12:27:53;1.05;;;0.95;;
63320;SDS011;49449;48.800;9.534;2023-08-06T12:30:21;1.88;;;1.17;;
63320;SDS011;49449;48.800;9.534;2023-08-06T12:32:49;0.90;;;0.80;;
63320;SDS011;49449;48.800;9.534;2023-08-06T12:35:19;2.45;;;1.13;;
63320;SDS011;49449;48.800;9.534;2023-08-06T12:37:47;1.20;;;1.20;;
63320;SDS011;49449;48.800;9.534;2023-08-06T12:40:15;0.77;;;0.77;;
63320;SDS011;49449;48.800;9.534;2023-08-06T12:42:55;1.17;;;0.98;;
63320;SDS011;49449;48.800;9.534;2023-08-06T12:45:25;0.98;;;0.80;;
63320;SDS011;49449;48.800;9.534;2023-08-06T12:47:52;1.15;;;1.10;;
63320;SDS011;49449;48.800;9.534;2023-08-06T12:50:20;1.17;;;1.00;;
63320;SDS011;49449;48.800;9.534;2023-08-06T12:52:48;1.05;;;0.90;;
63320;SDS011;49449;48.800;9.534;2023-08-06T12:55:18;1.05;;;1.00;;
63320;SDS011;49449;48.800;9.534;2023-08-06T12:57:46;1.25;;;1.15;;
63320;SDS011;49449;48.800;9.534;2023-08-06T13:00:23;1.00;;;1.00;;
63320;SDS011;49449;48.800;9.534;2023-08-06T13:02:54;1.35;;;1.00;;
63320;SDS011;49449;48.800;9.534;2023-08-06T13:05:21;2.88;;;1.30;;
63320;SDS011;49449;48.800;9.534;2023-08-06T13:07:49;1.23;;;1.13;;
63320;SDS011;49449;48.800;9.534;2023-08-06T13:10:20;2.63;;;1.30;;
63320;SDS011;49449;48.800;9.534;2023-08-06T13:12:49;1.33;;;1.23;;
63320;SDS011;49449;48.800;9.534;2023-08-06T13:15:17;1.70;;;1.20;;
63320;SDS011;49449;48.800;9.534;2023-08-06T13:17:48;1.23;;;1.13;;
63320;SDS011;49449;48.800;9.534;2023-08-06T13:20:16;1.27;;;1.00;;
63320;SDS011;49449;48.800;9.534;2023-08-06T13:22:47;1.48;;;1.20;;
63320;SDS011;49449;48.800;9.534;2023-08-06T13:25:16;1.20;;;1.20;;
63320;SDS011;49449;48.800;9.534;2023-08-06T13:27:44;1.08;;;0.98;;
63320;SDS011;49449;48.800;9.534;2023-08-06T13:30:13;0.90;;;0.90;;
63320;SDS011;49449;48.800;9.534;2023-08-06T13:32:41;1.00;;;1.00;;
63320;SDS011;49449;48.800;9.534;2023-08-06T13:35:12;1.45;;;1.27;;
63320;SDS011;49449;48.800;9.534;2023-08-06T13:37:40;0.88;;;0.88;;
63320;SDS011;49449;48.800;9.534;2023-08-06T13:40:08;0.90;;;0.90;;
63320;SDS011;49449;48.800;9.534;2023-08-06T13:42:36;0.98;;;0.98;;
63320;SDS011;49449;48.800;9.534;2023-08-06T13:45:04;0.88;;;0.88;;
63320;SDS011;49449;48.800;9.534;2023-08-06T13:47:32;0.95;;;0.90;;
63320;SDS011;49449;48.800;9.534;2023-08-06T13:50:00;1.02;;;0.90;;
63320;SDS011;49449;48.800;9.534;2023-08-06T13:52:30;1.00;;;0.90;;
63320;SDS011;49449;48.800;9.534;2023-08-06T13:54:58;0.80;;;0.80;;
63320;SDS011;49449;48.800;9.534;2023-08-06T13:57:26;0.80;;;0.80;;
63320;SDS011;49449;48.800;9.534;2023-08-06T13:59:53;0.93;;;0.93;;
63320;SDS011;49449;48.800;9.534;2023-08-06T14:02:21;0.98;;;0.88;;
63320;SDS011;49449;48.800;9.534;2023-08-06T14:04:51;0.65;;;0.65;;
63320;SDS011;49449;48.800;9.534;2023-08-06T14:07:19;1.23;;;0.73;;
63320;SDS011;49449;48.800;9.534;2023-08-06T14:09:49;0.68;;;0.68;;
63320;SDS011;49449;48.800;9.534;2023-08-06T14:12:16;0.70;;;0.70;;
63320;SDS011;49449;48.800;9.534;2023-08-06T14:14:44;1.10;;;1.00;;
63320;SDS011;49449;48.800;9.534;2023-08-06T14:17:12;0.80;;;0.80;;
63320;SDS011;49449;48.800;9.534;2023-08-06T14:19:40;0.75;;;0.75;;
63320;SDS011;49449;48.800;9.534;2023-08-06T14:22:07;0.82;;;0.82;;
63320;SDS011;49449;48.800;9.534;2023-08-06T14:24:35;1.27;;;0.80;;
63320;SDS011;49449;48.800;9.534;2023-08-06T14:27:05;1.70;;;0.80;;
63320;SDS011;49449;48.800;9.534;2023-08-06T14:32:02;0.93;;;0.80;;
63320;SDS011;49449;48.800;9.534;2023-08-06T14:34:29;0.70;;;0.70;;
63320;SDS011;49449;48.800;9.534;2023-08-06T14:36:58;2.03;;;0.70;;
63320;SDS011;49449;48.800;9.534;2023-08-06T14:39:26;0.88;;;0.85;;
63320;SDS011;49449;48.800;9.534;2023-08-06T14:41:54;1.05;;;0.93;;
63320;SDS011;49449;48.800;9.534;2023-08-06T14:44:23;0.75;;;0.65;;
63320;SDS011;49449;48.800;9.534;2023-08-06T14:46:51;1.52;;;0.85;;
63320;SDS011;49449;48.800;9.534;2023-08-06T14:49:19;1.35;;;0.88;;
63320;SDS011;49449;48.800;9.534;2023-08-06T14:51:47;0.80;;;0.80;;
63320;SDS011;49449;48.800;9.534;2023-08-06T14:54:14;0.70;;;0.70;;
63320;SDS011;49449;48.800;9.534;2023-08-06T14:56:42;0.75;;;0.75;;
63320;SDS011;49449;48.800;9.534;2023-08-06T14:59:10;1.23;;;1.13;;
63320;SDS011;49449;48.800;9.534;2023-08-06T15:01:39;2.50;;;0.95;;